createdAt,value
2019-03-08T00:02:55.200Z,1.73
2019-03-08T00:08:02.247Z,2.00
2019-03-08T00:13:09.196Z,1.60
2019-03-08T00:18:16.570Z,2.13
2019-03-08T00:23:23.562Z,1.67
2019-03-08T00:28:30.763Z,1.83
2019-03-08T00:33:37.759Z,1.60
2019-03-08T00:38:44.816Z,2.00
2019-03-08T00:43:51.887Z,1.90
2019-03-08T00:48:58.885Z,1.93
2019-03-08T00:54:05.822Z,2.00
2019-03-08T00:59:12.769Z,1.90
2019-03-08T01:04:19.674Z,1.63
2019-03-08T01:09:26.597Z,1.93
2019-03-08T01:14:33.678Z,1.80
2019-03-08T01:19:40.770Z,1.63
2019-03-08T01:24:48.181Z,1.63
2019-03-08T01:29:55.158Z,1.43
2019-03-08T01:35:02.098Z,1.70
2019-03-08T01:40:10.129Z,1.43
2019-03-08T01:45:17.200Z,1.10
2019-03-08T01:50:24.308Z,1.50
2019-03-08T01:55:31.237Z,1.50
2019-03-08T02:00:40.801Z,1.67
2019-03-08T02:05:47.987Z,1.40
2019-03-08T02:10:54.902Z,1.37
2019-03-08T02:16:01.877Z,1.30
2019-03-08T02:21:08.880Z,1.67
2019-03-08T02:26:15.870Z,1.67
2019-03-08T02:31:22.811Z,1.90
2019-03-08T02:36:30.119Z,1.80
2019-03-08T02:41:37.016Z,2.00
2019-03-08T02:46:44.242Z,1.40
2019-03-08T02:51:51.165Z,1.73
2019-03-08T02:56:58.073Z,1.67
2019-03-08T03:02:05.154Z,1.60
2019-03-08T03:07:12.107Z,1.70
2019-03-08T03:12:19.021Z,1.47
2019-03-08T03:17:25.952Z,1.53
2019-03-08T03:22:32.901Z,1.80
2019-03-08T03:27:40.053Z,1.50
2019-03-08T03:32:46.977Z,1.67
2019-03-08T03:37:53.975Z,1.73
2019-03-08T03:43:01.092Z,1.70
2019-03-08T03:48:08.110Z,1.90
2019-03-08T03:53:15.121Z,1.10
2019-03-08T03:58:22.356Z,1.47
2019-03-08T04:03:30.664Z,1.50
2019-03-08T04:08:37.666Z,1.90
2019-03-08T04:13:44.822Z,1.53
2019-03-08T04:18:51.847Z,1.33
2019-03-08T04:23:58.966Z,1.50
2019-03-08T04:29:05.903Z,1.50
2019-03-08T04:34:12.869Z,1.67
2019-03-08T04:39:19.842Z,1.50
2019-03-08T04:44:27.110Z,1.63
2019-03-08T04:49:34.059Z,1.50
2019-03-08T04:54:41.215Z,1.40
2019-03-08T04:59:49.137Z,1.43
2019-03-08T05:04:56.154Z,1.47
2019-03-08T05:10:03.164Z,1.73
2019-03-08T05:15:11.366Z,1.60
2019-03-08T05:20:19.377Z,1.10
2019-03-08T05:25:26.289Z,1.37
2019-03-08T05:30:33.228Z,1.73
2019-03-08T05:35:40.167Z,1.50
2019-03-08T05:40:47.175Z,1.83
2019-03-08T05:45:54.167Z,1.27
2019-03-08T05:51:01.135Z,1.33
2019-03-08T05:56:09.396Z,1.03
2019-03-08T06:01:16.339Z,1.33
2019-03-08T06:06:23.654Z,1.30
2019-03-08T06:11:30.578Z,1.47
2019-03-08T06:16:37.548Z,1.30
2019-03-08T06:21:45.734Z,1.17
2019-03-08T06:26:52.661Z,1.80
2019-03-08T06:32:00.086Z,1.67
2019-03-08T06:37:07.023Z,1.33
2019-03-08T06:42:13.939Z,1.40
2019-03-08T06:47:20.868Z,1.67
2019-03-08T06:52:27.795Z,1.50
2019-03-08T06:57:34.771Z,1.60
2019-03-08T07:02:41.696Z,1.43
2019-03-08T07:07:48.637Z,1.60
2019-03-08T07:13:02.799Z,1.30
2019-03-08T07:18:12.291Z,1.73
2019-03-08T07:23:34.858Z,1.57
2019-03-08T07:28:50.764Z,1.40
2019-03-08T07:34:11.211Z,1.33
2019-03-08T07:39:40.780Z,1.40
2019-03-08T07:45:03.822Z,1.20
2019-03-08T07:50:42.713Z,1.70
2019-03-08T07:55:59.034Z,1.43
2019-03-08T08:01:25.048Z,1.30
2019-03-08T08:06:57.186Z,1.60
2019-03-08T08:12:26.166Z,1.47
2019-03-08T08:17:48.368Z,1.67
2019-03-08T08:23:00.832Z,1.87
2019-03-08T08:28:32.203Z,1.60
2019-03-08T08:33:51.551Z,1.77
2019-03-08T08:39:16.382Z,1.43
2019-03-08T08:44:53.047Z,1.40
2019-03-08T08:50:17.825Z,1.40
2019-03-08T08:55:49.576Z,2.00
2019-03-08T09:01:10.004Z,1.90
2019-03-08T09:06:44.840Z,1.50
2019-03-08T09:12:22.965Z,1.80
2019-03-08T09:17:47.890Z,1.80
2019-03-08T09:23:03.602Z,1.70
2019-03-08T09:28:24.703Z,1.40
2019-03-08T09:33:36.426Z,1.50
2019-03-08T09:38:51.922Z,1.77
2019-03-08T09:44:09.754Z,1.50
2019-03-08T09:49:53.633Z,1.80
2019-03-08T09:55:19.677Z,1.90
2019-03-08T10:00:37.538Z,2.10
2019-03-08T10:06:03.650Z,1.60
2019-03-08T10:11:15.989Z,1.63
2019-03-08T10:16:27.299Z,2.07
2019-03-08T10:21:53.011Z,1.70
2019-03-08T10:27:27.031Z,1.83
2019-03-08T10:32:51.699Z,1.70
2019-03-08T10:38:22.598Z,1.53
2019-03-08T10:43:43.723Z,1.60
2019-03-08T10:49:18.879Z,1.97
2019-03-08T10:54:47.734Z,1.90
2019-03-08T11:00:16.564Z,1.70
2019-03-08T11:05:34.950Z,1.87
2019-03-08T11:11:06.053Z,1.53
2019-03-08T11:16:32.265Z,2.07
2019-03-08T11:21:54.098Z,2.03
2019-03-08T11:27:35.442Z,2.10
2019-03-08T11:32:48.550Z,2.50
2019-03-08T11:38:17.049Z,2.00
2019-03-08T11:43:46.167Z,2.20
2019-03-08T11:49:01.167Z,2.20
2019-03-08T12:00:22.755Z,2.60
2019-03-08T12:05:43.221Z,1.70
2019-03-08T12:11:16.666Z,1.83
2019-03-08T12:16:34.634Z,2.00
2019-03-08T12:21:58.633Z,2.80
2019-03-08T12:27:15.130Z,2.77
2019-03-08T12:32:33.902Z,2.87
2019-03-08T12:37:48.771Z,2.73
2019-03-08T12:43:08.325Z,3.67
2019-03-08T12:48:31.225Z,2.60
2019-03-08T12:54:01.064Z,2.33
2019-03-08T12:59:23.931Z,2.23
2019-03-08T13:04:48.594Z,1.77
2019-03-08T13:09:57.358Z,1.40
2019-03-08T13:15:05.406Z,1.70
2019-03-08T13:20:15.079Z,1.87
2019-03-08T13:25:23.027Z,2.63
2019-03-08T13:30:29.966Z,2.97
2019-03-08T13:35:36.910Z,2.77
2019-03-08T13:40:44.211Z,2.43
2019-03-08T13:45:51.147Z,2.17
2019-03-08T13:50:58.107Z,1.77
2019-03-08T13:56:05.333Z,2.43
2019-03-08T14:01:12.267Z,2.60
2019-03-08T14:06:19.213Z,2.30
2019-03-08T14:11:26.244Z,2.13
2019-03-08T14:16:33.303Z,2.70
2019-03-08T14:21:40.578Z,2.73
2019-03-08T14:26:47.533Z,2.30
2019-03-08T14:32:07.629Z,3.13
2019-03-08T14:37:16.134Z,3.17
2019-03-08T14:42:29.571Z,3.43
2019-03-08T14:47:45.507Z,2.63
2019-03-08T14:52:55.162Z,3.20
2019-03-08T14:58:01.217Z,3.20
2019-03-08T15:03:08.334Z,3.23
2019-03-08T15:08:17.807Z,4.10
2019-03-08T15:13:25.737Z,2.90
2019-03-08T15:18:32.842Z,2.40
2019-03-08T15:23:40.004Z,3.07
2019-03-08T15:28:47.030Z,2.77
2019-03-08T15:33:54.507Z,1.70
2019-03-08T15:39:01.777Z,1.43
2019-03-08T15:44:10.395Z,1.70
2019-03-08T15:49:17.694Z,1.37
2019-03-08T15:54:24.689Z,2.07
2019-03-08T15:59:32.143Z,1.83
2019-03-08T16:04:39.731Z,2.53
2019-03-08T16:09:46.692Z,1.70
2019-03-08T16:14:54.035Z,1.83
2019-03-08T16:20:02.929Z,2.10
2019-03-08T16:25:10.526Z,1.50
2019-03-08T16:30:25.289Z,2.10
2019-03-08T16:35:41.530Z,1.70
2019-03-08T16:41:07.226Z,1.40
2019-03-08T16:46:31.662Z,2.60
2019-03-08T16:52:15.918Z,2.17
2019-03-08T16:57:39.083Z,3.17
2019-03-08T17:02:58.910Z,1.90
2019-03-08T17:08:23.581Z,1.90
2019-03-08T17:13:38.285Z,2.07
2019-03-08T17:18:56.517Z,1.93
2019-03-08T17:24:23.301Z,2.53
2019-03-08T17:29:35.526Z,2.90
2019-03-08T17:35:00.923Z,3.80
2019-03-08T17:40:29.746Z,4.00
2019-03-08T17:45:59.574Z,4.10
2019-03-08T17:51:41.411Z,4.23
2019-03-08T17:57:14.405Z,4.17
2019-03-08T18:02:51.399Z,4.87
2019-03-08T18:08:28.075Z,4.73
2019-03-08T18:13:41.500Z,4.60
2019-03-08T18:19:06.642Z,4.30
2019-03-08T18:24:32.579Z,4.63
2019-03-08T18:29:47.247Z,4.53
2019-03-08T18:35:12.285Z,4.97
2019-03-08T18:40:25.606Z,4.93
2019-03-08T18:45:50.162Z,4.67
2019-03-08T18:51:21.939Z,4.47
2019-03-08T18:56:46.844Z,4.23
2019-03-08T19:02:12.984Z,4.73
2019-03-08T19:07:51.463Z,4.33
2019-03-08T19:13:23.184Z,4.87
2019-03-08T19:18:37.207Z,4.63
2019-03-08T19:23:58.847Z,4.37
2019-03-08T19:29:27.869Z,4.73
2019-03-08T19:34:54.118Z,3.93
2019-03-08T19:40:12.902Z,4.30
2019-03-08T19:45:36.167Z,5.00
2019-03-08T19:51:00.996Z,5.47
2019-03-08T19:56:33.993Z,4.57
2019-03-08T20:02:06.123Z,4.80
2019-03-08T20:07:23.502Z,4.33
2019-03-08T20:12:50.274Z,5.03
2019-03-08T20:18:19.483Z,5.43
2019-03-08T20:23:45.204Z,4.90
2019-03-08T20:29:10.104Z,5.37
2019-03-08T20:34:23.730Z,5.47
2019-03-08T20:39:38.657Z,5.80
2019-03-08T20:44:58.143Z,6.43
2019-03-08T20:50:06.520Z,7.00
2019-03-08T20:55:13.784Z,8.20
2019-03-08T21:00:20.852Z,9.73
2019-03-08T21:05:27.967Z,9.60
2019-03-08T21:10:34.888Z,10.27
2019-03-08T21:15:41.831Z,9.57
2019-03-08T21:20:48.858Z,8.47
2019-03-08T21:25:55.787Z,7.17
2019-03-08T21:31:02.810Z,7.07
2019-03-08T21:36:09.851Z,6.43
2019-03-08T21:41:16.807Z,6.87
2019-03-08T21:46:23.857Z,6.50
2019-03-08T21:51:31.906Z,6.30
2019-03-08T21:56:38.911Z,6.60
2019-03-08T22:01:46.000Z,7.40
2019-03-08T22:06:52.924Z,6.10
2019-03-08T22:11:59.938Z,6.30
2019-03-08T22:17:06.869Z,5.90
2019-03-08T22:22:13.786Z,6.23
2019-03-08T22:27:20.698Z,5.97
2019-03-08T22:32:28.770Z,5.80
2019-03-08T22:37:35.717Z,5.63
2019-03-08T22:42:42.678Z,5.83
2019-03-08T22:47:49.672Z,5.80
2019-03-08T22:52:56.946Z,5.87
2019-03-08T22:58:03.943Z,5.87
2019-03-08T23:03:11.158Z,6.43
2019-03-08T23:08:18.233Z,6.30
2019-03-08T23:13:25.495Z,5.83
2019-03-08T23:18:32.666Z,5.43
2019-03-08T23:23:39.580Z,5.13
2019-03-08T23:29:08.903Z,5.83
2019-03-08T23:34:15.838Z,4.77
2019-03-08T23:39:22.831Z,5.20
2019-03-08T23:44:29.812Z,4.73
2019-03-08T23:49:37.047Z,4.63
2019-03-08T23:54:44.062Z,5.13
2019-03-08T23:59:52.942Z,4.70
